createdAt,value
2022-08-04T00:03:55.533Z,59.60
2022-08-04T00:14:23.738Z,59.99
2022-08-04T00:24:53.295Z,60.19
2022-08-04T00:35:22.679Z,60.18
2022-08-04T00:46:26.541Z,60.12
2022-08-04T00:57:34.189Z,60.13
2022-08-04T01:08:20.475Z,60.58
2022-08-04T01:19:00.902Z,60.39
2022-08-04T01:29:41.551Z,60.53
2022-08-04T01:40:18.066Z,60.18
2022-08-04T01:50:52.951Z,60.52
2022-08-04T02:01:22.637Z,60.62
2022-08-04T02:12:01.541Z,60.78
2022-08-04T02:22:34.174Z,60.51
2022-08-04T02:33:06.203Z,60.93
2022-08-04T02:43:51.130Z,61.29
2022-08-04T02:54:33.690Z,61.44
2022-08-04T03:05:15.198Z,61.58
2022-08-04T03:16:01.681Z,61.73
2022-08-04T03:27:02.442Z,60.98
2022-08-04T03:37:59.216Z,61.52
2022-08-04T03:48:51.301Z,61.48
2022-08-04T03:59:49.038Z,60.88
2022-08-04T04:10:31.902Z,60.56
2022-08-04T04:21:25.534Z,60.85
2022-08-04T04:32:07.054Z,61.16
2022-08-04T04:42:53.200Z,61.42
2022-08-04T04:53:29.072Z,62.73
2022-08-04T05:04:20.809Z,64.52
2022-08-04T05:14:52.211Z,65.22
2022-08-04T05:25:26.015Z,65.22
2022-08-04T05:36:23.486Z,64.70
2022-08-04T05:46:54.662Z,63.72
2022-08-04T05:57:25.382Z,62.33
2022-08-04T06:08:12.420Z,60.88
2022-08-04T06:19:59.528Z,59.32
2022-08-04T06:29:37.540Z,57.79
2022-08-04T06:40:30.899Z,56.47
2022-08-04T06:51:24.372Z,55.49
2022-08-04T07:01:51.766Z,54.08
2022-08-04T07:12:22.096Z,53.50
2022-08-04T07:22:53.049Z,51.64
2022-08-04T07:33:23.082Z,50.78
2022-08-04T07:43:52.760Z,50.36
2022-08-04T07:54:22.541Z,49.10
2022-08-04T08:04:52.504Z,48.63
2022-08-04T08:15:22.216Z,48.29
2022-08-04T08:25:51.576Z,46.60
2022-08-04T08:36:28.360Z,46.59
2022-08-04T08:47:09.198Z,46.75
2022-08-04T08:57:59.857Z,45.51
2022-08-04T09:08:52.431Z,45.60
2022-08-04T09:19:38.005Z,44.55
2022-08-04T09:30:12.509Z,44.90
2022-08-04T09:40:55.408Z,44.66
2022-08-04T09:51:56.720Z,43.70
2022-08-04T10:02:33.427Z,43.50
2022-08-04T10:13:19.666Z,43.79
2022-08-04T10:24:01.398Z,42.86
2022-08-04T10:34:38.390Z,42.11
2022-08-04T10:45:16.005Z,41.77
2022-08-04T10:56:05.561Z,42.10
2022-08-04T11:06:39.542Z,41.85
2022-08-04T11:17:13.268Z,41.77
2022-08-04T11:27:53.070Z,41.04
2022-08-04T11:38:32.200Z,40.31
2022-08-04T11:49:07.577Z,40.84
2022-08-04T11:59:37.587Z,39.78
2022-08-04T12:10:41.097Z,39.41
2022-08-04T12:21:20.355Z,39.49
2022-08-04T12:31:54.703Z,38.89
2022-08-04T12:42:31.644Z,38.40
2022-08-04T12:53:03.452Z,38.80
2022-08-04T13:03:39.644Z,38.49
2022-08-04T13:14:26.476Z,38.44
2022-08-04T13:26:41.488Z,39.04
2022-08-04T13:35:55.856Z,37.75
2022-08-04T13:46:28.915Z,37.81
2022-08-04T13:57:02.008Z,38.20
2022-08-04T14:07:33.248Z,38.20
2022-08-04T14:18:21.339Z,38.16
2022-08-04T14:29:09.604Z,38.49
2022-08-04T14:40:18.506Z,38.25
2022-08-04T14:50:44.933Z,38.07
2022-08-04T15:01:17.146Z,38.26
2022-08-04T15:11:47.680Z,38.93
2022-08-04T15:22:26.849Z,38.58
2022-08-04T15:33:00.014Z,39.15
2022-08-04T15:43:55.257Z,39.24
2022-08-04T15:54:32.579Z,39.50
2022-08-04T16:05:37.189Z,39.45
2022-08-04T16:16:06.692Z,39.49
2022-08-04T16:26:54.412Z,40.03
2022-08-04T16:37:26.005Z,39.86
2022-08-04T16:48:10.964Z,39.76
2022-08-04T16:58:53.951Z,39.80
2022-08-04T17:09:28.408Z,39.78
2022-08-04T17:19:58.231Z,40.01
2022-08-04T17:30:33.888Z,39.81
2022-08-04T17:41:19.068Z,39.66
2022-08-04T17:52:02.957Z,39.75
2022-08-04T18:02:37.855Z,40.18
2022-08-04T18:13:14.264Z,40.67
2022-08-04T18:23:51.007Z,41.73
2022-08-04T18:34:24.207Z,42.20
2022-08-04T18:44:53.766Z,42.22
2022-08-04T18:55:55.323Z,42.38
2022-08-04T19:06:12.899Z,42.96
2022-08-04T19:16:46.043Z,43.25
2022-08-04T19:27:17.207Z,43.57
2022-08-04T19:37:57.232Z,44.17
2022-08-04T19:48:31.440Z,44.98
2022-08-04T19:59:01.528Z,45.14
2022-08-04T20:09:31.151Z,45.10
2022-08-04T20:20:09.101Z,45.41
2022-08-04T20:30:38.661Z,45.75
2022-08-04T20:41:08.866Z,46.51
2022-08-04T20:51:40.736Z,46.72
2022-08-04T21:02:16.297Z,46.95
2022-08-04T21:12:49.842Z,47.45
2022-08-04T21:23:22.305Z,47.70
2022-08-04T21:33:58.350Z,48.13
2022-08-04T21:44:28.765Z,48.58
2022-08-04T21:54:58.187Z,48.99
2022-08-04T22:05:32.830Z,49.45
2022-08-04T22:16:04.324Z,49.42
2022-08-04T22:26:34.682Z,49.75
2022-08-04T22:37:12.451Z,50.31
2022-08-04T22:47:41.869Z,50.59
2022-08-04T22:58:22.029Z,51.00
2022-08-04T23:08:59.403Z,51.54
2022-08-04T23:19:30.141Z,52.07
2022-08-04T23:30:01.092Z,52.25
2022-08-04T23:40:34.306Z,52.47
2022-08-04T23:51:14.512Z,52.77
